Time;durP1;ratioP1;P1;durP2;ratioP2;P2;SDS_P1;SDS_P2;PMS_P1;PMS_P2;Temp;Humidity;BMP_temperature;BMP_pressure;BME280_temperature;BME280_humidity;BME280_pressure;Samples;Min_cycle;Max_cycle;Signal;HPM_P1;HPM_P2
2023/09/18 00:00:27;;;;;;;15.32;5.25;;;;;;;;;;4997178;28;20046;-66
2023/09/18 00:02:53;;;;;;;13.85;4.93;;;;;;;;;;4988091;28;20027;-66
2023/09/18 00:05:18;;;;;;;11.45;4.95;;;;;;;;;;4984332;28;20042;-65
2023/09/18 00:07:44;;;;;;;12.90;5.70;;;;;;;;;;4996702;28;20102;-66
2023/09/18 00:10:13;;;;;;;11.95;4.75;;;;;;;;;;4990477;28;20038;-66
2023/09/18 00:12:40;;;;;;;12.82;5.32;;;;;;;;;;4996767;28;20026;-66
2023/09/18 00:15:08;;;;;;;10.80;4.60;;;;;;;;;;4991889;28;20022;-66
2023/09/18 00:17:35;;;;;;;12.20;4.90;;;;;;;;;;4984987;28;20105;-66
2023/09/18 00:20:00;;;;;;;11.38;4.38;;;;;;;;;;4989967;28;20109;-65
2023/09/18 00:22:25;;;;;;;11.25;4.55;;;;;;;;;;4989483;28;20085;-65
2023/09/18 00:24:51;;;;;;;9.90;4.65;;;;;;;;;;4992116;28;20045;-64
2023/09/18 00:27:17;;;;;;;14.77;5.35;;;;;;;;;;4986742;28;20425;-65
2023/09/18 00:29:42;;;;;;;13.73;5.55;;;;;;;;;;4990500;28;20054;-65
2023/09/18 00:32:08;;;;;;;12.55;5.43;;;;;;;;;;4995051;28;20096;-65
2023/09/18 00:34:33;;;;;;;12.98;4.90;;;;;;;;;;4996428;28;20030;-65
2023/09/18 00:36:59;;;;;;;14.15;4.63;;;;;;;;;;4986078;28;20035;-65
2023/09/18 00:39:25;;;;;;;8.70;4.50;;;;;;;;;;4990831;28;20365;-66
2023/09/18 00:41:53;;;;;;;13.75;5.05;;;;;;;;;;4986493;28;20034;-65
2023/09/18 00:44:22;;;;;;;12.40;5.80;;;;;;;;;;4994087;28;20476;-65
2023/09/18 00:46:48;;;;;;;10.57;4.88;;;;;;;;;;4990834;28;20065;-65
2023/09/18 00:49:15;;;;;;;10.85;4.45;;;;;;;;;;4996382;28;20157;-65
2023/09/18 00:51:41;;;;;;;11.52;4.90;;;;;;;;;;4995911;28;20098;-65
2023/09/18 00:54:08;;;;;;;11.02;5.03;;;;;;;;;;4984170;28;20435;-65
2023/09/18 00:56:34;;;;;;;16.63;4.93;;;;;;;;;;4995836;28;20101;-65
2023/09/18 00:59:02;;;;;;;13.52;5.15;;;;;;;;;;4994885;28;20026;-65
2023/09/18 01:01:29;;;;;;;12.02;5.47;;;;;;;;;;4993831;28;20046;-65
2023/09/18 01:03:56;;;;;;;13.38;4.93;;;;;;;;;;4994439;28;20023;-66
2023/09/18 01:06:21;;;;;;;15.50;5.00;;;;;;;;;;4989420;28;20034;-66
2023/09/18 01:08:50;;;;;;;13.77;5.40;;;;;;;;;;4993030;28;20515;-66
2023/09/18 01:11:39;;;;;;;11.40;5.03;;;;;;;;;;4993274;28;20050;-66
2023/09/18 01:14:47;;;;;;;16.38;5.60;;;;;;;;;;4992083;28;20019;-66
2023/09/18 01:17:15;;;;;;;13.63;4.82;;;;;;;;;;4987092;28;20042;-66
2023/09/18 01:19:42;;;;;;;14.55;5.18;;;;;;;;;;4984170;28;20043;-65
2023/09/18 01:22:09;;;;;;;10.35;4.75;;;;;;;;;;4995413;28;20038;-66
2023/09/18 01:24:36;;;;;;;11.63;5.63;;;;;;;;;;4991108;28;20037;-66
2023/09/18 01:27:04;;;;;;;9.40;4.53;;;;;;;;;;4994201;28;20046;-66
2023/09/18 01:29:29;;;;;;;8.70;4.55;;;;;;;;;;4992193;28;20466;-66
2023/09/18 01:31:55;;;;;;;17.67;5.60;;;;;;;;;;4990581;28;20089;-65
2023/09/18 01:34:25;;;;;;;12.55;5.35;;;;;;;;;;4990485;28;20472;-65
2023/09/18 01:36:51;;;;;;;11.70;4.72;;;;;;;;;;4993428;28;20038;-65
2023/09/18 01:39:18;;;;;;;11.95;5.15;;;;;;;;;;4996199;28;20114;-65
2023/09/18 01:41:43;;;;;;;13.40;5.10;;;;;;;;;;4989253;28;20493;-65
2023/09/18 01:44:09;;;;;;;14.60;5.72;;;;;;;;;;5008851;28;20031;-65
2023/09/18 01:46:38;;;;;;;9.27;4.60;;;;;;;;;;4985584;28;20067;-65
2023/09/18 01:49:03;;;;;;;14.98;5.05;;;;;;;;;;4992747;28;20045;-65
2023/09/18 01:51:29;;;;;;;14.77;5.20;;;;;;;;;;4992056;28;20030;-65
2023/09/18 01:53:55;;;;;;;11.88;5.43;;;;;;;;;;4993682;28;20396;-65
2023/09/18 01:56:21;;;;;;;10.38;4.60;;;;;;;;;;4991745;28;20047;-65
2023/09/18 01:58:46;;;;;;;10.48;4.95;;;;;;;;;;4992651;28;20526;-65
2023/09/18 02:01:12;;;;;;;14.30;5.00;;;;;;;;;;4995116;28;20178;-65
2023/09/18 02:03:41;;;;;;;13.80;5.53;;;;;;;;;;4992833;28;20042;-66
2023/09/18 02:06:10;;;;;;;16.23;4.82;;;;;;;;;;4992552;28;20038;-66
2023/09/18 02:08:35;;;;;;;11.23;5.15;;;;;;;;;;4997417;28;20061;-66
2023/09/18 02:11:02;;;;;;;14.45;5.05;;;;;;;;;;4999451;28;20038;-65
2023/09/18 02:13:28;;;;;;;12.00;5.50;;;;;;;;;;4997776;28;20026;-66
2023/09/18 02:15:53;;;;;;;14.38;5.15;;;;;;;;;;4987888;28;20090;-65
2023/09/18 02:18:19;;;;;;;13.38;4.78;;;;;;;;;;4999367;28;20054;-65
2023/09/18 02:20:48;;;;;;;14.93;5.22;;;;;;;;;;4997682;28;20436;-66
2023/09/18 02:23:18;;;;;;;13.15;5.32;;;;;;;;;;4992274;28;20057;-66
2023/09/18 02:25:43;;;;;;;11.85;5.47;;;;;;;;;;4993817;28;20057;-66
2023/09/18 02:28:09;;;;;;;17.00;6.05;;;;;;;;;;4995567;28;20034;-66
2023/09/18 02:30:34;;;;;;;16.60;5.35;;;;;;;;;;4993443;28;20531;-65
2023/09/18 02:33:03;;;;;;;19.73;5.22;;;;;;;;;;4994372;28;20030;-65
2023/09/18 02:35:28;;;;;;;13.15;5.43;;;;;;;;;;4991824;28;20044;-65
2023/09/18 02:37:54;;;;;;;14.38;5.32;;;;;;;;;;4991762;28;20532;-65
2023/09/18 02:40:19;;;;;;;13.25;5.40;;;;;;;;;;4988564;28;20038;-65
2023/09/18 02:42:44;;;;;;;19.40;5.25;;;;;;;;;;4987921;28;20068;-66
2023/09/18 02:45:10;;;;;;;13.85;5.88;;;;;;;;;;4986819;28;20050;-65
2023/09/18 02:47:37;;;;;;;12.38;5.70;;;;;;;;;;4991890;28;20038;-66
2023/09/18 02:50:05;;;;;;;17.02;5.38;;;;;;;;;;4987476;28;20022;-66
2023/09/18 02:52:30;;;;;;;18.15;5.80;;;;;;;;;;4995065;28;20023;-65
2023/09/18 02:54:56;;;;;;;15.60;5.30;;;;;;;;;;4985364;28;20022;-65
2023/09/18 02:57:21;;;;;;;14.70;6.13;;;;;;;;;;4992151;28;20034;-65
2023/09/18 02:59:47;;;;;;;12.40;5.63;;;;;;;;;;4983417;28;20054;-66
2023/09/18 03:02:12;;;;;;;18.00;5.45;;;;;;;;;;4986776;28;20122;-66
2023/09/18 03:04:37;;;;;;;15.50;6.53;;;;;;;;;;4997311;28;20038;-66
2023/09/18 03:07:03;;;;;;;16.02;5.88;;;;;;;;;;4996700;28;20121;-66
2023/09/18 03:09:29;;;;;;;13.25;5.35;;;;;;;;;;4996195;28;20030;-66
2023/09/18 03:11:54;;;;;;;18.02;5.43;;;;;;;;;;5006794;28;20027;-66
2023/09/18 03:14:20;;;;;;;24.17;5.53;;;;;;;;;;4995432;28;20038;-66
2023/09/18 03:16:45;;;;;;;16.10;5.35;;;;;;;;;;4995944;28;20114;-66
2023/09/18 03:19:11;;;;;;;14.13;5.03;;;;;;;;;;4987310;28;20493;-66
2023/09/18 03:21:36;;;;;;;15.32;5.80;;;;;;;;;;4991134;28;20046;-66
2023/09/18 03:24:02;;;;;;;13.52;5.03;;;;;;;;;;4997003;28;20060;-66
2023/09/18 03:26:28;;;;;;;14.73;5.57;;;;;;;;;;4997097;28;20633;-66
2023/09/18 03:28:53;;;;;;;12.55;5.53;;;;;;;;;;4996624;28;20027;-66
2023/09/18 03:31:19;;;;;;;11.82;5.47;;;;;;;;;;4994583;28;20097;-66
2023/09/18 03:33:44;;;;;;;12.98;5.13;;;;;;;;;;4993889;28;20046;-66
2023/09/18 03:36:11;;;;;;;12.20;5.22;;;;;;;;;;4990483;28;20035;-66
2023/09/18 03:38:37;;;;;;;10.75;5.55;;;;;;;;;;4993958;28;20054;-65
2023/09/18 03:41:02;;;;;;;13.57;5.60;;;;;;;;;;4991849;28;20452;-66
2023/09/18 03:43:28;;;;;;;15.02;5.90;;;;;;;;;;4990053;28;20037;-65
2023/09/18 03:45:53;;;;;;;15.93;5.30;;;;;;;;;;4987121;28;20047;-65
2023/09/18 03:48:20;;;;;;;12.85;5.57;;;;;;;;;;4994826;28;20084;-65
2023/09/18 03:50:47;;;;;;;15.93;5.38;;;;;;;;;;4988462;28;20448;-65
2023/09/18 03:53:12;;;;;;;13.32;5.65;;;;;;;;;;4995325;28;20029;-66
2023/09/18 03:55:38;;;;;;;12.73;5.75;;;;;;;;;;4995647;28;20042;-65
2023/09/18 03:58:04;;;;;;;15.07;5.43;;;;;;;;;;4997622;28;20555;-65
2023/09/18 04:00:30;;;;;;;14.57;5.68;;;;;;;;;;4996039;28;20069;-65
2023/09/18 04:02:55;;;;;;;15.63;5.60;;;;;;;;;;4993316;28;20018;-65
2023/09/18 04:05:21;;;;;;;11.18;5.57;;;;;;;;;;4994236;28;20094;-66
2023/09/18 04:07:47;;;;;;;19.23;6.18;;;;;;;;;;4987914;28;20038;-66
2023/09/18 04:10:18;;;;;;;18.40;6.05;;;;;;;;;;4992099;28;20042;-65
2023/09/18 04:12:46;;;;;;;14.70;5.68;;;;;;;;;;4993340;28;20035;-66
2023/09/18 04:15:15;;;;;;;19.30;6.63;;;;;;;;;;4988620;28;20038;-66
2023/09/18 04:17:40;;;;;;;13.85;5.82;;;;;;;;;;4982756;28;20035;-66
2023/09/18 04:20:06;;;;;;;18.10;6.15;;;;;;;;;;4990827;28;20037;-66
2023/09/18 04:22:32;;;;;;;20.73;5.70;;;;;;;;;;4990725;28;20049;-67
2023/09/18 04:24:57;;;;;;;21.25;5.93;;;;;;;;;;4984912;28;20041;-66
2023/09/18 04:27:22;;;;;;;19.40;6.90;;;;;;;;;;4990542;28;20035;-66
2023/09/18 04:29:48;;;;;;;17.50;6.50;;;;;;;;;;4993093;28;20026;-66
2023/09/18 04:32:13;;;;;;;14.50;5.45;;;;;;;;;;4985304;28;20041;-67
2023/09/18 04:34:39;;;;;;;20.80;5.85;;;;;;;;;;4988600;28;20057;-66
2023/09/18 04:37:05;;;;;;;19.30;5.45;;;;;;;;;;4989313;28;20104;-67
2023/09/18 04:39:30;;;;;;;15.95;6.22;;;;;;;;;;4989989;28;20038;-66
2023/09/18 04:41:55;;;;;;;19.48;5.95;;;;;;;;;;4982661;28;20065;-66
2023/09/18 04:44:21;;;;;;;20.85;5.93;;;;;;;;;;4994540;28;20552;-66
2023/09/18 04:46:46;;;;;;;19.00;6.70;;;;;;;;;;4987174;28;20038;-66
2023/09/18 04:49:12;;;;;;;18.67;6.15;;;;;;;;;;4990076;28;20588;-66
2023/09/18 04:51:39;;;;;;;16.02;5.63;;;;;;;;;;4982592;28;20116;-66
2023/09/18 04:54:05;;;;;;;20.30;6.47;;;;;;;;;;4990961;28;20096;-66
2023/09/18 04:56:30;;;;;;;16.30;5.60;;;;;;;;;;4983981;28;20047;-66
2023/09/18 04:58:57;;;;;;;16.25;6.03;;;;;;;;;;4992630;28;20029;-66
2023/09/18 05:01:24;;;;;;;17.10;6.03;;;;;;;;;;4996868;28;20053;-66
2023/09/18 05:03:51;;;;;;;16.90;5.88;;;;;;;;;;4991940;28;20037;-66
2023/09/18 05:06:16;;;;;;;15.27;5.57;;;;;;;;;;4995713;28;20034;-65
2023/09/18 05:08:43;;;;;;;21.33;5.90;;;;;;;;;;4989364;28;20033;-66
2023/09/18 05:11:09;;;;;;;16.45;5.55;;;;;;;;;;4989585;28;20026;-66
2023/09/18 05:13:34;;;;;;;23.48;6.85;;;;;;;;;;4991486;28;20018;-66
2023/09/18 05:16:00;;;;;;;19.33;6.57;;;;;;;;;;4976683;28;20041;-66
2023/09/18 05:18:26;;;;;;;17.48;5.97;;;;;;;;;;4986083;28;20051;-66
2023/09/18 05:20:52;;;;;;;18.58;6.20;;;;;;;;;;4985893;28;20039;-66
2023/09/18 05:23:18;;;;;;;13.50;5.35;;;;;;;;;;4992460;28;20041;-66
2023/09/18 05:25:44;;;;;;;15.95;5.10;;;;;;;;;;4991233;28;20065;-66
2023/09/18 05:28:09;;;;;;;16.50;6.15;;;;;;;;;;4989613;28;20427;-66
2023/09/18 05:30:38;;;;;;;19.98;6.22;;;;;;;;;;4985499;28;20034;-67
2023/09/18 05:33:05;;;;;;;15.18;5.93;;;;;;;;;;4984782;28;20137;-68
2023/09/18 05:35:40;;;;;;;17.85;5.88;;;;;;;;;;4979262;28;20042;-67
2023/09/18 05:38:06;;;;;;;19.45;5.95;;;;;;;;;;4983796;28;20031;-65
2023/09/18 05:40:32;;;;;;;15.18;6.30;;;;;;;;;;4985794;28;20048;-66
2023/09/18 05:42:58;;;;;;;18.98;6.18;;;;;;;;;;4987921;28;20971;-67
2023/09/18 05:45:23;;;;;;;15.57;5.82;;;;;;;;;;4989311;28;20531;-67
2023/09/18 05:47:49;;;;;;;17.77;6.15;;;;;;;;;;4983018;28;20030;-69
2023/09/18 05:50:16;;;;;;;18.23;6.28;;;;;;;;;;4980803;28;20115;-67
2023/09/18 05:52:47;;;;;;;14.02;5.20;;;;;;;;;;4986577;28;20105;-66
2023/09/18 05:55:14;;;;;;;17.77;6.40;;;;;;;;;;4989253;28;20038;-67
2023/09/18 05:57:40;;;;;;;17.88;5.75;;;;;;;;;;4987212;28;20030;-66
2023/09/18 06:00:06;;;;;;;13.52;6.25;;;;;;;;;;4992382;28;20036;-66
2023/09/18 06:02:32;;;;;;;15.55;5.80;;;;;;;;;;4984940;28;20121;-67
2023/09/18 06:05:00;;;;;;;15.35;5.57;;;;;;;;;;4995290;28;20066;-66
2023/09/18 06:07:29;;;;;;;13.98;5.18;;;;;;;;;;4987930;28;20030;-66
2023/09/18 06:09:56;;;;;;;12.40;5.25;;;;;;;;;;4985036;28;20037;-66
2023/09/18 06:12:21;;;;;;;15.63;6.07;;;;;;;;;;4988019;28;20022;-67
2023/09/18 06:14:48;;;;;;;13.77;5.35;;;;;;;;;;4980257;28;20547;-67
2023/09/18 06:17:14;;;;;;;13.80;5.10;;;;;;;;;;4986274;28;20073;-67
2023/09/18 06:19:40;;;;;;;10.95;5.55;;;;;;;;;;4985436;28;20042;-67
2023/09/18 06:22:07;;;;;;;9.50;5.50;;;;;;;;;;4988158;28;20058;-67
2023/09/18 06:24:32;;;;;;;12.55;5.15;;;;;;;;;;4990379;28;20035;-67
2023/09/18 06:26:58;;;;;;;10.02;5.07;;;;;;;;;;4986058;28;20050;-66
2023/09/18 06:29:23;;;;;;;15.05;5.18;;;;;;;;;;4985870;28;20031;-66
2023/09/18 06:31:50;;;;;;;15.07;5.32;;;;;;;;;;4985714;28;20037;-66
2023/09/18 06:34:16;;;;;;;12.48;5.38;;;;;;;;;;4985772;28;20648;-67
2023/09/18 06:36:41;;;;;;;9.18;4.90;;;;;;;;;;4982618;28;20126;-67
2023/09/18 06:39:07;;;;;;;14.50;5.18;;;;;;;;;;4986684;28;20022;-66
2023/09/18 06:41:33;;;;;;;12.18;5.20;;;;;;;;;;4985744;28;20038;-66
2023/09/18 06:44:02;;;;;;;12.27;5.47;;;;;;;;;;4981532;28;20121;-67
2023/09/18 06:46:28;;;;;;;16.42;5.10;;;;;;;;;;4992819;28;20054;-67
2023/09/18 06:48:53;;;;;;;10.88;5.30;;;;;;;;;;4991784;28;20037;-66
2023/09/18 06:51:19;;;;;;;12.13;5.30;;;;;;;;;;4981365;28;20820;-66
2023/09/18 06:53:44;;;;;;;8.27;5.00;;;;;;;;;;4992412;28;20033;-67
2023/09/18 06:56:10;;;;;;;15.80;4.82;;;;;;;;;;4990165;28;20030;-67
2023/09/18 06:58:35;;;;;;;11.52;5.88;;;;;;;;;;4987427;28;20034;-67
2023/09/18 07:01:01;;;;;;;12.65;5.43;;;;;;;;;;4986244;28;20518;-67
2023/09/18 07:03:26;;;;;;;12.93;4.78;;;;;;;;;;4998051;28;20037;-67
2023/09/18 07:05:52;;;;;;;10.63;4.90;;;;;;;;;;4999001;28;20053;-67
2023/09/18 07:08:22;;;;;;;9.32;5.47;;;;;;;;;;4995348;28;20026;-67
2023/09/18 07:10:50;;;;;;;9.25;5.18;;;;;;;;;;4997877;28;20045;-67
2023/09/18 07:13:15;;;;;;;12.45;5.20;;;;;;;;;;4998205;28;20026;-66
2023/09/18 07:15:41;;;;;;;11.43;4.72;;;;;;;;;;4991232;28;20039;-67
2023/09/18 07:18:06;;;;;;;10.02;5.25;;;;;;;;;;4995288;28;20053;-67
2023/09/18 07:20:32;;;;;;;9.65;5.00;;;;;;;;;;4982798;28;20038;-67
2023/09/18 07:22:58;;;;;;;7.35;4.88;;;;;;;;;;4989372;28;20030;-67
2023/09/18 07:25:23;;;;;;;10.60;5.25;;;;;;;;;;4993301;28;20703;-67
2023/09/18 07:27:48;;;;;;;12.43;4.78;;;;;;;;;;4994815;28;20035;-67
2023/09/18 07:30:19;;;;;;;11.57;4.95;;;;;;;;;;4986328;28;20042;-67
2023/09/18 07:32:45;;;;;;;10.15;5.05;;;;;;;;;;4993006;28;20084;-67
2023/09/18 07:35:11;;;;;;;10.80;5.43;;;;;;;;;;4986215;28;20821;-67
2023/09/18 07:37:37;;;;;;;8.75;4.75;;;;;;;;;;4989231;28;20031;-67
2023/09/18 07:40:04;;;;;;;9.05;5.03;;;;;;;;;;4979059;28;20121;-67
2023/09/18 07:42:29;;;;;;;11.85;5.30;;;;;;;;;;4986669;28;20053;-67
2023/09/18 07:44:55;;;;;;;11.45;5.18;;;;;;;;;;4987636;28;20389;-67
2023/09/18 07:47:20;;;;;;;9.07;4.97;;;;;;;;;;4986112;28;20026;-67
2023/09/18 07:49:46;;;;;;;11.07;5.28;;;;;;;;;;4986832;28;20026;-67
2023/09/18 07:52:12;;;;;;;14.07;5.43;;;;;;;;;;4989731;28;20057;-67
2023/09/18 07:54:37;;;;;;;9.30;4.70;;;;;;;;;;4987010;28;20560;-66
2023/09/18 07:57:02;;;;;;;11.52;5.70;;;;;;;;;;5015708;28;20068;-67
2023/09/18 07:59:29;;;;;;;15.02;4.90;;;;;;;;;;4983805;28;20161;-67
2023/09/18 08:01:54;;;;;;;8.80;4.85;;;;;;;;;;4989789;28;20049;-66
2023/09/18 08:04:20;;;;;;;13.88;4.97;;;;;;;;;;4994107;28;20476;-67
2023/09/18 08:06:45;;;;;;;14.20;5.85;;;;;;;;;;4996410;28;20090;-67
2023/09/18 08:09:13;;;;;;;8.32;5.15;;;;;;;;;;4983644;28;20109;-67
2023/09/18 08:11:41;;;;;;;13.23;5.63;;;;;;;;;;4993839;28;20038;-67
2023/09/18 08:14:07;;;;;;;13.10;5.00;;;;;;;;;;4988015;28;20026;-67
2023/09/18 08:16:33;;;;;;;13.65;5.30;;;;;;;;;;4991467;28;20121;-67
2023/09/18 08:19:00;;;;;;;15.05;5.13;;;;;;;;;;4988601;28;20077;-67
2023/09/18 08:21:28;;;;;;;13.70;5.57;;;;;;;;;;4995345;28;20038;-67
2023/09/18 08:23:54;;;;;;;12.18;4.97;;;;;;;;;;4998053;28;20030;-67
2023/09/18 08:26:20;;;;;;;11.75;4.95;;;;;;;;;;4989919;28;20039;-67
2023/09/18 08:28:46;;;;;;;14.13;6.05;;;;;;;;;;4990653;28;20106;-67
2023/09/18 08:31:12;;;;;;;15.80;6.03;;;;;;;;;;4983677;28;20039;-67
2023/09/18 08:33:37;;;;;;;15.80;5.47;;;;;;;;;;4996227;28;20030;-67
2023/09/18 08:36:02;;;;;;;17.45;5.32;;;;;;;;;;4994711;28;20061;-67
2023/09/18 08:38:28;;;;;;;13.25;5.13;;;;;;;;;;4985231;28;20062;-67
2023/09/18 08:40:55;;;;;;;16.83;5.00;;;;;;;;;;4991627;28;20041;-67
2023/09/18 08:43:21;;;;;;;16.30;5.25;;;;;;;;;;4989868;28;20085;-67
2023/09/18 08:45:55;;;;;;;16.88;5.15;;;;;;;;;;4995874;28;20053;-67
2023/09/18 08:48:21;;;;;;;13.75;5.05;;;;;;;;;;4995969;28;20030;-67
2023/09/18 08:50:51;;;;;;;13.88;5.00;;;;;;;;;;4981170;28;20440;-67
2023/09/18 08:53:16;;;;;;;14.20;5.22;;;;;;;;;;4989237;28;20034;-67
2023/09/18 08:55:42;;;;;;;15.82;5.40;;;;;;;;;;4989333;28;20034;-67
2023/09/18 08:58:08;;;;;;;15.95;5.53;;;;;;;;;;4983514;28;20030;-73
2023/09/18 09:00:36;;;;;;;12.00;5.13;;;;;;;;;;4981188;28;20105;-69
2023/09/18 09:03:04;;;;;;;14.18;5.65;;;;;;;;;;4986798;28;20396;-69
2023/09/18 09:05:30;;;;;;;9.30;5.07;;;;;;;;;;4986637;28;20614;-69
2023/09/18 09:07:56;;;;;;;14.38;5.38;;;;;;;;;;4989898;28;20026;-69
2023/09/18 09:10:21;;;;;;;14.25;5.20;;;;;;;;;;4989865;28;20038;-69
2023/09/18 09:12:50;;;;;;;24.48;5.30;;;;;;;;;;4993474;28;20034;-68
2023/09/18 09:15:16;;;;;;;12.27;5.30;;;;;;;;;;4989572;28;20508;-69
2023/09/18 09:17:43;;;;;;;16.58;5.57;;;;;;;;;;4992304;28;20081;-69
2023/09/18 09:20:12;;;;;;;18.17;5.65;;;;;;;;;;4989104;28;20101;-69
2023/09/18 09:22:40;;;;;;;17.15;5.70;;;;;;;;;;4987742;28;20244;-69
2023/09/18 09:25:26;;;;;;;17.02;5.40;;;;;;;;;;4993283;28;20022;-69
2023/09/18 09:27:52;;;;;;;15.65;5.28;;;;;;;;;;4993908;28;20037;-68
2023/09/18 09:30:23;;;;;;;16.05;5.80;;;;;;;;;;4995394;28;20045;-69
2023/09/18 09:32:50;;;;;;;14.10;5.65;;;;;;;;;;4985347;28;20030;-69
2023/09/18 09:35:36;;;;;;;14.07;5.45;;;;;;;;;;4991577;28;20041;-68
2023/09/18 09:38:10;;;;;;;13.13;4.80;;;;;;;;;;4989318;28;20085;-68
2023/09/18 09:40:40;;;;;;;25.75;5.75;;;;;;;;;;4982962;28;20042;-69
2023/09/18 09:43:08;;;;;;;17.05;5.75;;;;;;;;;;4984769;28;20106;-69
2023/09/18 09:45:37;;;;;;;26.35;6.18;;;;;;;;;;4990984;28;20045;-77
2023/09/18 09:48:05;;;;;;;17.00;5.20;;;;;;;;;;4992009;28;20041;-74
2023/09/18 09:50:32;;;;;;;14.63;5.53;;;;;;;;;;4977749;28;20054;-74
2023/09/18 09:52:57;;;;;;;20.05;6.50;;;;;;;;;;4985348;28;21506;-76
2023/09/18 09:55:30;;;;;;;28.00;5.60;;;;;;;;;;4983843;28;20030;-75
2023/09/18 09:58:01;;;;;;;16.77;5.22;;;;;;;;;;4984479;28;20068;-75
2023/09/18 10:00:33;;;;;;;26.40;6.18;;;;;;;;;;4981644;28;20042;-74
2023/09/18 10:03:02;;;;;;;17.33;5.95;;;;;;;;;;4985974;28;20500;-74
2023/09/18 10:05:33;;;;;;;19.38;5.70;;;;;;;;;;4983369;28;20042;-73
2023/09/18 10:08:01;;;;;;;15.32;5.35;;;;;;;;;;4988545;28;20034;-74
2023/09/18 10:10:36;;;;;;;16.75;5.68;;;;;;;;;;4987226;28;20053;-73
2023/09/18 10:13:15;;;;;;;16.05;4.88;;;;;;;;;;4978839;28;20046;-72
2023/09/18 10:15:43;;;;;;;21.05;5.47;;;;;;;;;;4986474;28;20145;-72
2023/09/18 10:18:17;;;;;;;13.98;5.40;;;;;;;;;;4990797;28;20051;-72
2023/09/18 10:20:48;;;;;;;17.23;5.80;;;;;;;;;;4985776;28;20039;-69
2023/09/18 10:23:26;;;;;;;18.88;6.07;;;;;;;;;;4993937;28;20157;-72
2023/09/18 10:25:55;;;;;;;16.65;5.35;;;;;;;;;;4994902;28;20129;-72
2023/09/18 10:28:23;;;;;;;21.67;5.72;;;;;;;;;;4995116;28;20112;-71
2023/09/18 10:30:50;;;;;;;17.63;4.85;;;;;;;;;;4996131;28;20173;-70
2023/09/18 10:33:16;;;;;;;19.83;5.28;;;;;;;;;;4997335;28;20115;-71
2023/09/18 10:35:43;;;;;;;19.52;5.47;;;;;;;;;;4992382;28;20039;-70
2023/09/18 10:38:10;;;;;;;16.40;5.45;;;;;;;;;;4997961;28;20018;-70
2023/09/18 10:40:37;;;;;;;18.70;5.60;;;;;;;;;;4987592;28;20041;-71
2023/09/18 10:43:09;;;;;;;18.88;5.70;;;;;;;;;;4992829;28;20464;-71
2023/09/18 10:45:35;;;;;;;15.68;5.50;;;;;;;;;;4996318;28;20042;-71
2023/09/18 10:48:01;;;;;;;17.23;5.32;;;;;;;;;;4999005;28;20022;-70
2023/09/18 10:50:27;;;;;;;17.73;5.60;;;;;;;;;;4994607;28;20050;-71
2023/09/18 10:52:53;;;;;;;16.60;5.80;;;;;;;;;;4997568;28;20022;-72
2023/09/18 10:55:18;;;;;;;17.75;5.03;;;;;;;;;;4991890;28;20508;-70
2023/09/18 10:57:55;;;;;;;19.80;5.75;;;;;;;;;;4993194;28;20023;-70
2023/09/18 11:00:24;;;;;;;18.55;5.25;;;;;;;;;;4995214;28;20069;-71
2023/09/18 11:03:14;;;;;;;19.20;5.13;;;;;;;;;;4997946;28;20392;-72
2023/09/18 11:05:39;;;;;;;14.55;4.55;;;;;;;;;;4992462;28;20523;-71
2023/09/18 11:08:28;;;;;;;22.30;5.60;;;;;;;;;;4994045;28;20030;-71
2023/09/18 11:11:04;;;;;;;18.23;6.88;;;;;;;;;;4989145;28;20058;-73
2023/09/18 11:13:35;;;;;;;20.63;5.30;;;;;;;;;;4988674;28;20034;-71
2023/09/18 11:16:13;;;;;;;15.52;4.95;;;;;;;;;;4991614;28;20046;-71
2023/09/18 11:18:38;;;;;;;16.52;6.00;;;;;;;;;;4996791;28;20057;-71
2023/09/18 11:21:11;;;;;;;15.68;4.93;;;;;;;;;;4998071;28;20042;-71
2023/09/18 11:23:42;;;;;;;16.83;5.40;;;;;;;;;;4996986;28;20032;-70
2023/09/18 11:26:09;;;;;;;19.05;5.35;;;;;;;;;;4986374;28;20043;-70
2023/09/18 11:28:35;;;;;;;16.55;5.00;;;;;;;;;;4995357;28;20034;-71
2023/09/18 11:31:01;;;;;;;16.70;5.18;;;;;;;;;;4991289;28;20046;-70
2023/09/18 11:33:30;;;;;;;24.38;6.13;;;;;;;;;;4997911;28;20105;-71
2023/09/18 11:35:56;;;;;;;20.88;5.88;;;;;;;;;;4992601;28;20496;-70
2023/09/18 11:38:22;;;;;;;16.85;5.15;;;;;;;;;;4988438;28;20415;-71
2023/09/18 11:40:49;;;;;;;16.15;5.43;;;;;;;;;;4990765;28;20035;-71
2023/09/18 11:43:25;;;;;;;15.65;4.90;;;;;;;;;;4992683;28;20400;-70
2023/09/18 11:45:56;;;;;;;13.35;5.10;;;;;;;;;;4984113;28;20413;-70
2023/09/18 11:48:29;;;;;;;18.80;5.03;;;;;;;;;;4996269;28;20033;-71
2023/09/18 11:50:59;;;;;;;18.45;5.57;;;;;;;;;;4991587;28;20384;-71
2023/09/18 11:53:27;;;;;;;13.32;4.70;;;;;;;;;;4989570;28;20036;-70
2023/09/18 11:55:53;;;;;;;18.55;4.95;;;;;;;;;;4989596;28;20034;-70
2023/09/18 11:58:22;;;;;;;13.95;4.68;;;;;;;;;;4997525;28;20090;-70
2023/09/18 12:00:49;;;;;;;16.83;4.82;;;;;;;;;;4997232;28;20535;-70
2023/09/18 12:03:25;;;;;;;17.60;5.00;;;;;;;;;;4995019;28;20452;-70
2023/09/18 12:05:57;;;;;;;14.95;4.80;;;;;;;;;;4994847;28;20054;-71
2023/09/18 12:08:26;;;;;;;19.00;4.80;;;;;;;;;;4991869;28;20027;-71
2023/09/18 12:10:54;;;;;;;19.50;4.32;;;;;;;;;;4996826;28;20125;-71
2023/09/18 12:13:20;;;;;;;15.05;4.57;;;;;;;;;;4993896;28;20021;-71
2023/09/18 12:15:49;;;;;;;15.00;4.75;;;;;;;;;;4987769;28;20395;-70
2023/09/18 12:18:16;;;;;;;11.45;4.53;;;;;;;;;;4995096;28;20085;-70
2023/09/18 12:20:49;;;;;;;12.38;4.43;;;;;;;;;;4987156;28;20042;-72
2023/09/18 12:23:15;;;;;;;13.75;4.88;;;;;;;;;;4994775;28;20109;-71
2023/09/18 12:25:42;;;;;;;17.70;4.80;;;;;;;;;;4989590;28;20045;-71
2023/09/18 12:28:08;;;;;;;20.05;4.82;;;;;;;;;;4993933;28;20109;-70
2023/09/18 12:30:34;;;;;;;18.38;4.93;;;;;;;;;;4987419;28;20047;-71
2023/09/18 12:32:59;;;;;;;17.83;4.85;;;;;;;;;;4987168;28;20475;-71
2023/09/18 12:35:29;;;;;;;20.50;4.57;;;;;;;;;;4986233;28;20073;-73
2023/09/18 12:37:55;;;;;;;18.13;4.45;;;;;;;;;;4988816;28;20081;-71
2023/09/18 12:40:26;;;;;;;19.98;4.97;;;;;;;;;;4980317;28;20034;-71
2023/09/18 12:42:57;;;;;;;17.15;4.78;;;;;;;;;;4987107;28;20022;-72
2023/09/18 12:45:24;;;;;;;17.40;4.97;;;;;;;;;;4990216;28;20075;-71
2023/09/18 12:47:50;;;;;;;18.80;4.93;;;;;;;;;;4985094;28;20029;-72
2023/09/18 12:50:16;;;;;;;19.10;4.93;;;;;;;;;;4987857;28;20050;-66
2023/09/18 12:52:42;;;;;;;14.13;4.72;;;;;;;;;;4985270;28;20109;-66
2023/09/18 12:55:08;;;;;;;18.15;5.13;;;;;;;;;;4988003;28;20114;-66
2023/09/18 12:57:34;;;;;;;18.25;5.20;;;;;;;;;;4996922;28;20022;-65
2023/09/18 13:00:09;;;;;;;17.50;4.80;;;;;;;;;;4996914;28;20037;-66
2023/09/18 13:02:36;;;;;;;14.50;4.60;;;;;;;;;;4990782;28;20027;-66
2023/09/18 13:05:01;;;;;;;16.55;4.82;;;;;;;;;;4991203;28;20434;-66
2023/09/18 13:07:27;;;;;;;15.55;4.45;;;;;;;;;;4995637;28;20038;-66
2023/09/18 13:10:22;;;;;;;19.45;5.05;;;;;;;;;;4989793;28;20093;-64
2023/09/18 13:12:53;;;;;;;21.60;5.20;;;;;;;;;;5000088;28;20137;-66
2023/09/18 13:15:30;;;;;;;18.73;4.78;;;;;;;;;;4992955;28;20106;-66
2023/09/18 13:17:56;;;;;;;20.85;5.30;;;;;;;;;;4996691;28;20046;-66
2023/09/18 13:20:29;;;;;;;18.42;4.63;;;;;;;;;;4995524;28;20058;-66
2023/09/18 13:22:57;;;;;;;17.80;5.13;;;;;;;;;;4997102;28;20057;-65
2023/09/18 13:25:25;;;;;;;24.30;5.55;;;;;;;;;;4984124;28;20100;-66
2023/09/18 13:27:51;;;;;;;16.23;5.00;;;;;;;;;;4994917;28;20623;-66
2023/09/18 13:30:17;;;;;;;14.55;4.38;;;;;;;;;;4993148;28;20064;-65
2023/09/18 13:32:44;;;;;;;19.05;5.00;;;;;;;;;;4987429;28;20519;-66
2023/09/18 13:35:11;;;;;;;17.20;4.93;;;;;;;;;;4988390;28;20118;-65
2023/09/18 13:37:37;;;;;;;16.02;4.38;;;;;;;;;;4987359;28;20057;-65
2023/09/18 13:40:07;;;;;;;17.85;4.88;;;;;;;;;;4990446;28;20035;-65
2023/09/18 13:42:32;;;;;;;17.55;5.20;;;;;;;;;;4984626;28;20102;-65
2023/09/18 13:45:01;;;;;;;14.68;5.03;;;;;;;;;;4994947;28;20070;-66
2023/09/18 13:47:28;;;;;;;20.65;4.28;;;;;;;;;;4995300;28;20022;-65
2023/09/18 13:49:56;;;;;;;21.17;4.43;;;;;;;;;;4986787;28;20030;-65
2023/09/18 13:52:23;;;;;;;22.38;5.80;;;;;;;;;;4992590;28;20040;-66
2023/09/18 13:54:51;;;;;;;21.10;4.60;;;;;;;;;;4996174;28;22301;-70
2023/09/18 13:57:18;;;;;;;18.33;3.95;;;;;;;;;;4986922;28;20400;-71
2023/09/18 13:59:44;;;;;;;15.23;4.47;;;;;;;;;;4994518;28;20026;-71
2023/09/18 14:02:10;;;;;;;26.20;5.25;;;;;;;;;;4997828;28;20034;-71
2023/09/18 14:04:36;;;;;;;16.40;4.97;;;;;;;;;;4992009;28;20034;-67
2023/09/18 14:07:02;;;;;;;21.55;4.45;;;;;;;;;;4999429;28;20034;-67
2023/09/18 14:09:28;;;;;;;22.10;4.82;;;;;;;;;;4995102;28;20026;-67
2023/09/18 14:11:54;;;;;;;18.92;5.22;;;;;;;;;;4997692;28;20389;-66
2023/09/18 14:14:20;;;;;;;14.88;4.50;;;;;;;;;;4993859;28;20046;-67
2023/09/18 14:16:45;;;;;;;18.08;4.10;;;;;;;;;;4985435;28;20106;-67
2023/09/18 14:19:11;;;;;;;17.40;4.88;;;;;;;;;;4990844;28;20038;-67
2023/09/18 14:21:39;;;;;;;12.70;3.75;;;;;;;;;;4982560;28;20119;-67
2023/09/18 14:24:05;;;;;;;17.55;4.85;;;;;;;;;;4997562;28;20053;-67
2023/09/18 14:26:30;;;;;;;11.73;4.00;;;;;;;;;;4996284;28;20054;-66
2023/09/18 14:28:55;;;;;;;13.68;4.28;;;;;;;;;;4992172;28;20053;-67
2023/09/18 14:31:21;;;;;;;14.43;4.38;;;;;;;;;;4989493;28;20075;-67